sensor_id;sensor_type;location;lat;lon;timestamp;pressure;altitude;pressure_sealevel;temperature;humidity
31044;BME280;17710;52.520;13.352;2023-04-01T00:00:47;99343.44;;;15.06;65.76
31044;BME280;17710;52.520;13.352;2023-04-01T00:03:13;99349.06;;;14.90;66.11
31044;BME280;17710;52.520;13.352;2023-04-01T00:05:40;99338.38;;;15.14;65.18
31044;BME280;17710;52.520;13.352;2023-04-01T00:08:08;99345.53;;;15.13;64.80
31044;BME280;17710;52.520;13.352;2023-04-01T00:10:34;99337.72;;;14.99;65.49
31044;BME280;17710;52.520;13.352;2023-04-01T00:13:00;99341.28;;;15.11;65.09
31044;BME280;17710;52.520;13.352;2023-04-01T00:15:27;99341.22;;;14.89;65.79
31044;BME280;17710;52.520;13.352;2023-04-01T00:17:53;99346.56;;;15.00;65.24
31044;BME280;17710;52.520;13.352;2023-04-01T00:20:20;99341.06;;;15.14;64.68
31044;BME280;17710;52.520;13.352;2023-04-01T00:22:46;99340.94;;;15.15;65.12
31044;BME280;17710;52.520;13.352;2023-04-01T00:25:14;99344.44;;;15.16;65.13
31044;BME280;17710;52.520;13.352;2023-04-01T00:27:41;99343.78;;;15.01;65.43
31044;BME280;17710;52.520;13.352;2023-04-01T00:30:08;99340.19;;;15.02;65.19
31044;BME280;17710;52.520;13.352;2023-04-01T00:32:35;99342.22;;;14.99;65.15
31044;BME280;17710;52.520;13.352;2023-04-01T00:35:03;99338.97;;;15.06;65.09
31044;BME280;17710;52.520;13.352;2023-04-01T00:37:30;99338.88;;;15.19;65.14
31044;BME280;17710;52.520;13.352;2023-04-01T00:39:56;99339.31;;;15.02;65.37
31044;BME280;17710;52.520;13.352;2023-04-01T00:42:25;99337.34;;;14.93;65.81
31044;BME280;17710;52.520;13.352;2023-04-01T00:44:53;99337.16;;;15.07;65.26
31044;BME280;17710;52.520;13.352;2023-04-01T00:47:20;99342.38;;;14.85;66.48
31044;BME280;17710;52.520;13.352;2023-04-01T00:49:49;99333.34;;;14.87;66.12
31044;BME280;17710;52.520;13.352;2023-04-01T00:52:19;99343.13;;;15.22;64.71
31044;BME280;17710;52.520;13.352;2023-04-01T00:54:49;99340.22;;;15.25;65.03
31044;BME280;17710;52.520;13.352;2023-04-01T00:57:22;99340.56;;;15.09;65.51
31044;BME280;17710;52.520;13.352;2023-04-01T00:59:53;99341.06;;;15.14;65.16
31044;BME280;17710;52.520;13.352;2023-04-01T01:02:20;99340.59;;;15.20;65.01
31044;BME280;17710;52.520;13.352;2023-04-01T01:04:47;99342.94;;;15.01;65.99
31044;BME280;17710;52.520;13.352;2023-04-01T01:07:21;99341.22;;;14.89;66.35
31044;BME280;17710;52.520;13.352;2023-04-01T01:09:56;99349.66;;;14.83;66.49
31044;BME280;17710;52.520;13.352;2023-04-01T01:12:30;99340.88;;;15.04;65.85
31044;BME280;17710;52.520;13.352;2023-04-01T01:15:02;99342.09;;;15.00;66.14
31044;BME280;17710;52.520;13.352;2023-04-01T01:17:42;99345.34;;;15.04;66.22
31044;BME280;17710;52.520;13.352;2023-04-01T01:20:26;99342.50;;;15.18;65.50
31044;BME280;17710;52.520;13.352;2023-04-01T01:23:30;99344.94;;;15.21;65.35
31044;BME280;17710;52.520;13.352;2023-04-01T01:26:32;99344.28;;;15.06;66.04
31044;BME280;17710;52.520;13.352;2023-04-01T01:29:10;99343.13;;;15.22;65.42
31044;BME280;17710;52.520;13.352;2023-04-01T01:31:45;99340.56;;;15.09;65.69
31044;BME280;17710;52.520;13.352;2023-04-01T01:34:21;99352.91;;;14.86;66.41
31044;BME280;17710;52.520;13.352;2023-04-01T01:36:55;99348.34;;;14.88;67.00
31044;BME280;17710;52.520;13.352;2023-04-01T01:39:25;99348.63;;;14.72;67.41
31044;BME280;17710;52.520;13.352;2023-04-01T01:41:53;99349.38;;;14.74;67.30
31044;BME280;17710;52.520;13.352;2023-04-01T01:44:22;99356.06;;;14.91;67.05
31044;BME280;17710;52.520;13.352;2023-04-01T01:46:49;99351.22;;;14.85;67.26
31044;BME280;17710;52.520;13.352;2023-04-01T01:49:17;99351.13;;;14.87;67.32
31044;BME280;17710;52.520;13.352;2023-04-01T01:51:44;99357.31;;;14.98;66.70
31044;BME280;17710;52.520;13.352;2023-04-01T01:54:13;99355.38;;;14.89;67.11
31044;BME280;17710;52.520;13.352;2023-04-01T01:56:41;99359.56;;;14.81;67.02
31044;BME280;17710;52.520;13.352;2023-04-01T01:59:11;99363.16;;;14.80;67.58
31044;BME280;17710;52.520;13.352;2023-04-01T02:01:41;99363.25;;;15.02;66.36
31044;BME280;17710;52.520;13.352;2023-04-01T02:04:10;99359.00;;;14.99;66.13
31044;BME280;17710;52.520;13.352;2023-04-01T02:06:39;99367.56;;;14.92;66.62
31044;BME280;17710;52.520;13.352;2023-04-01T02:09:10;99368.59;;;15.02;66.34
31044;BME280;17710;52.520;13.352;2023-04-01T02:11:41;99357.22;;;15.11;65.96
31044;BME280;17710;52.520;13.352;2023-04-01T02:14:11;99360.91;;;15.21;65.75
31044;BME280;17710;52.520;13.352;2023-04-01T02:16:45;99363.25;;;15.02;66.34
31044;BME280;17710;52.520;13.352;2023-04-01T02:19:14;99356.28;;;15.23;65.72
31044;BME280;17710;52.520;13.352;2023-04-01T02:21:48;99362.81;;;15.08;66.25
31044;BME280;17710;52.520;13.352;2023-04-01T02:24:17;99363.06;;;15.16;65.92
31044;BME280;17710;52.520;13.352;2023-04-01T02:26:48;99359.69;;;15.25;65.29
31044;BME280;17710;52.520;13.352;2023-04-01T02:29:18;99362.09;;;15.17;65.84
31044;BME280;17710;52.520;13.352;2023-04-01T02:31:46;99370.03;;;15.06;66.32
31044;BME280;17710;52.520;13.352;2023-04-01T02:34:13;99362.91;;;15.06;66.09
31044;BME280;17710;52.520;13.352;2023-04-01T02:36:40;99370.22;;;15.15;65.71
31044;BME280;17710;52.520;13.352;2023-04-01T02:39:07;99371.78;;;15.18;65.53
31044;BME280;17710;52.520;13.352;2023-04-01T02:41:39;99373.09;;;15.12;65.42
31044;BME280;17710;52.520;13.352;2023-04-01T02:44:07;99367.66;;;15.14;65.36
31044;BME280;17710;52.520;13.352;2023-04-01T02:46:35;99376.56;;;15.02;65.33
31044;BME280;17710;52.520;13.352;2023-04-01T02:49:01;99376.69;;;15.00;65.79
31044;BME280;17710;52.520;13.352;2023-04-01T02:51:28;99374.44;;;14.83;66.44
31044;BME280;17710;52.520;13.352;2023-04-01T02:53:54;99378.00;;;14.95;66.08
31044;BME280;17710;52.520;13.352;2023-04-01T02:56:21;99377.53;;;15.01;66.06
31044;BME280;17710;52.520;13.352;2023-04-01T02:58:47;99378.00;;;14.95;66.00
31044;BME280;17710;52.520;13.352;2023-04-01T03:01:15;99384.41;;;15.03;65.52
31044;BME280;17710;52.520;13.352;2023-04-01T03:03:41;99382.47;;;14.94;66.05
31044;BME280;17710;52.520;13.352;2023-04-01T03:06:10;99379.47;;;14.75;66.66
31044;BME280;17710;52.520;13.352;2023-04-01T03:08:36;99387.88;;;14.93;66.38
31044;BME280;17710;52.520;13.352;2023-04-01T03:11:03;99390.34;;;14.96;66.49
31044;BME280;17710;52.520;13.352;2023-04-01T03:13:30;99395.19;;;15.02;66.34
31044;BME280;17710;52.520;13.352;2023-04-01T03:15:56;99388.94;;;15.14;65.78
31044;BME280;17710;52.520;13.352;2023-04-01T03:18:24;99383.69;;;15.01;66.04
31044;BME280;17710;52.520;13.352;2023-04-01T03:20:50;99384.78;;;15.10;66.56
31044;BME280;17710;52.520;13.352;2023-04-01T03:23:16;99388.25;;;14.88;66.37
31044;BME280;17710;52.520;13.352;2023-04-01T03:25:44;99391.97;;;15.09;65.87
31044;BME280;17710;52.520;13.352;2023-04-01T03:28:11;99394.94;;;15.05;66.24
31044;BME280;17710;52.520;13.352;2023-04-01T03:30:37;99385.72;;;15.22;65.61
31044;BME280;17710;52.520;13.352;2023-04-01T03:33:04;99393.31;;;15.15;65.49
31044;BME280;17710;52.520;13.352;2023-04-01T03:35:31;99396.91;;;15.14;65.87
31044;BME280;17710;52.520;13.352;2023-04-01T03:37:58;99394.56;;;14.98;65.85
31044;BME280;17710;52.520;13.352;2023-04-01T03:40:24;99397.00;;;15.01;65.82
31044;BME280;17710;52.520;13.352;2023-04-01T03:42:51;99400.50;;;15.02;65.66
31044;BME280;17710;52.520;13.352;2023-04-01T03:45:17;99404.66;;;15.17;65.39
31044;BME280;17710;52.520;13.352;2023-04-01T03:47:44;99405.38;;;15.08;65.32
31044;BME280;17710;52.520;13.352;2023-04-01T03:50:10;99405.09;;;15.00;65.96
31044;BME280;17710;52.520;13.352;2023-04-01T03:52:38;99412.72;;;15.04;66.03
31044;BME280;17710;52.520;13.352;2023-04-01T03:55:05;99412.78;;;15.15;65.61
31044;BME280;17710;52.520;13.352;2023-04-01T03:57:31;99413.41;;;14.95;66.35
31044;BME280;17710;52.520;13.352;2023-04-01T03:59:58;99414.78;;;15.01;66.07
31044;BME280;17710;52.520;13.352;2023-04-01T04:02:24;99421.09;;;14.87;66.42
31044;BME280;17710;52.520;13.352;2023-04-01T04:04:51;99415.50;;;15.03;66.07
31044;BME280;17710;52.520;13.352;2023-04-01T04:07:17;99420.69;;;15.04;66.03
31044;BME280;17710;52.520;13.352;2023-04-01T04:09:45;99421.72;;;15.14;66.01
31044;BME280;17710;52.520;13.352;2023-04-01T04:12:12;99426.53;;;15.09;66.23
31044;BME280;17710;52.520;13.352;2023-04-01T04:14:39;99428.34;;;15.09;65.76
31044;BME280;17710;52.520;13.352;2023-04-01T04:17:05;99427.31;;;14.99;66.59
31044;BME280;17710;52.520;13.352;2023-04-01T04:19:33;99427.16;;;15.13;66.18
31044;BME280;17710;52.520;13.352;2023-04-01T04:21:59;99429.81;;;15.13;66.17
31044;BME280;17710;52.520;13.352;2023-04-01T04:24:26;99432.75;;;15.21;65.81
31044;BME280;17710;52.520;13.352;2023-04-01T04:26:54;99439.00;;;15.09;65.89
31044;BME280;17710;52.520;13.352;2023-04-01T04:29:20;99439.25;;;15.17;65.40
31044;BME280;17710;52.520;13.352;2023-04-01T04:31:47;99434.75;;;15.06;66.46
31044;BME280;17710;52.520;13.352;2023-04-01T04:34:14;99432.56;;;15.11;65.58
31044;BME280;17710;52.520;13.352;2023-04-01T04:36:40;99436.53;;;15.06;66.25
31044;BME280;17710;52.520;13.352;2023-04-01T04:39:07;99443.84;;;15.15;65.80
31044;BME280;17710;52.520;13.352;2023-04-01T04:41:33;99445.09;;;15.22;65.87
31044;BME280;17710;52.520;13.352;2023-04-01T04:44:01;99440.09;;;15.18;65.84
31044;BME280;17710;52.520;13.352;2023-04-01T04:46:27;99448.59;;;14.99;66.96
31044;BME280;17710;52.520;13.352;2023-04-01T04:48:54;99454.16;;;15.20;66.04
31044;BME280;17710;52.520;13.352;2023-04-01T04:51:20;99451.09;;;15.13;66.48
31044;BME280;17710;52.520;13.352;2023-04-01T04:53:48;99448.78;;;15.08;66.33
31044;BME280;17710;52.520;13.352;2023-04-01T04:56:17;99453.25;;;15.08;66.83
31044;BME280;17710;52.520;13.352;2023-04-01T04:58:44;99452.44;;;15.19;66.62
31044;BME280;17710;52.520;13.352;2023-04-01T05:01:13;99455.56;;;15.12;66.90
31044;BME280;17710;52.520;13.352;2023-04-01T05:03:41;99453.56;;;15.03;67.03
31044;BME280;17710;52.520;13.352;2023-04-01T05:06:08;99455.63;;;15.00;67.64
31044;BME280;17710;52.520;13.352;2023-04-01T05:08:35;99450.50;;;15.09;67.55
31044;BME280;17710;52.520;13.352;2023-04-01T05:11:06;99457.03;;;14.93;68.09
31044;BME280;17710;52.520;13.352;2023-04-01T05:13:34;99469.13;;;14.97;68.11
31044;BME280;17710;52.520;13.352;2023-04-01T05:16:01;99463.47;;;15.25;67.16
31044;BME280;17710;52.520;13.352;2023-04-01T05:18:29;99465.63;;;15.20;67.42
31044;BME280;17710;52.520;13.352;2023-04-01T05:20:55;99467.72;;;15.04;67.84
31044;BME280;17710;52.520;13.352;2023-04-01T05:23:22;99460.13;;;15.10;67.95
31044;BME280;17710;52.520;13.352;2023-04-01T05:25:49;99466.88;;;15.03;68.12
31044;BME280;17710;52.520;13.352;2023-04-01T05:28:16;99466.44;;;15.09;68.33
31044;BME280;17710;52.520;13.352;2023-04-01T05:30:43;99472.84;;;15.07;68.48
31044;BME280;17710;52.520;13.352;2023-04-01T05:33:13;99471.31;;;15.15;67.90
31044;BME280;17710;52.520;13.352;2023-04-01T05:35:41;99476.09;;;15.10;67.96
31044;BME280;17710;52.520;13.352;2023-04-01T05:38:07;99477.34;;;15.18;67.96
31044;BME280;17710;52.520;13.352;2023-04-01T05:40:34;99479.63;;;15.11;68.58
31044;BME280;17710;52.520;13.352;2023-04-01T05:43:00;99481.88;;;15.04;68.66
31044;BME280;17710;52.520;13.352;2023-04-01T05:45:27;99476.44;;;15.30;67.97
31044;BME280;17710;52.520;13.352;2023-04-01T05:47:53;99483.19;;;15.23;67.82
31044;BME280;17710;52.520;13.352;2023-04-01T05:50:20;99485.72;;;15.24;67.73
31044;BME280;17710;52.520;13.352;2023-04-01T05:52:47;99488.56;;;15.10;68.24
31044;BME280;17710;52.520;13.352;2023-04-01T05:55:14;99483.53;;;15.18;68.15
31044;BME280;17710;52.520;13.352;2023-04-01T05:57:40;99487.00;;;15.07;68.52
31044;BME280;17710;52.520;13.352;2023-04-01T06:00:08;99492.66;;;15.03;68.22
31044;BME280;17710;52.520;13.352;2023-04-01T06:02:35;99495.97;;;15.18;68.02
31044;BME280;17710;52.520;13.352;2023-04-01T06:05:12;99494.84;;;15.33;67.87
31044;BME280;17710;52.520;13.352;2023-04-01T06:07:40;99490.59;;;15.30;67.55
31044;BME280;17710;52.520;13.352;2023-04-01T06:10:12;99505.94;;;15.27;67.64
31044;BME280;17710;52.520;13.352;2023-04-01T06:12:59;99503.78;;;15.32;67.07
31044;BME280;17710;52.520;13.352;2023-04-01T06:15:35;99512.72;;;15.31;67.27
31044;BME280;17710;52.520;13.352;2023-04-01T06:18:35;99508.34;;;15.42;67.44
31044;BME280;17710;52.520;13.352;2023-04-01T06:21:12;99510.91;;;15.31;68.00
31044;BME280;17710;52.520;13.352;2023-04-01T06:23:51;99519.00;;;15.30;68.03
31044;BME280;17710;52.520;13.352;2023-04-01T06:26:29;99519.84;;;15.30;67.58
31044;BME280;17710;52.520;13.352;2023-04-01T06:29:22;99518.13;;;15.42;67.57
31044;BME280;17710;52.520;13.352;2023-04-01T06:32:06;99523.78;;;15.37;67.68
31044;BME280;17710;52.520;13.352;2023-04-01T06:34:49;99527.91;;;15.41;66.94
31044;BME280;17710;52.520;13.352;2023-04-01T06:37:42;99528.53;;;15.21;67.10
31044;BME280;17710;52.520;13.352;2023-04-01T06:40:31;99523.44;;;15.18;67.62
31044;BME280;17710;52.520;13.352;2023-04-01T06:43:10;99535.38;;;15.36;66.93
31044;BME280;17710;52.520;13.352;2023-04-01T06:45:45;99535.03;;;15.53;66.17
31044;BME280;17710;52.520;13.352;2023-04-01T06:48:24;99532.41;;;15.41;66.39
31044;BME280;17710;52.520;13.352;2023-04-01T06:51:04;99533.75;;;15.46;66.41
31044;BME280;17710;52.520;13.352;2023-04-01T06:53:39;99542.69;;;15.45;66.09
31044;BME280;17710;52.520;13.352;2023-04-01T06:56:12;99538.44;;;15.43;66.70
31044;BME280;17710;52.520;13.352;2023-04-01T06:58:46;99535.28;;;15.38;66.92
31044;BME280;17710;52.520;13.352;2023-04-01T07:01:18;99541.34;;;15.40;66.24
31044;BME280;17710;52.520;13.352;2023-04-01T07:03:50;99540.09;;;15.57;66.34
31044;BME280;17710;52.520;13.352;2023-04-01T07:06:25;99544.97;;;15.39;66.66
31044;BME280;17710;52.520;13.352;2023-04-01T07:08:55;99547.00;;;15.35;66.74
31044;BME280;17710;52.520;13.352;2023-04-01T07:11:29;99543.91;;;15.65;65.60
31044;BME280;17710;52.520;13.352;2023-04-01T07:14:01;99549.91;;;15.56;65.99
31044;BME280;17710;52.520;13.352;2023-04-01T07:16:33;99540.34;;;15.53;66.63
31044;BME280;17710;52.520;13.352;2023-04-01T07:19:06;99547.22;;;15.80;66.00
31044;BME280;17710;52.520;13.352;2023-04-01T07:21:37;99550.16;;;15.88;65.26
31044;BME280;17710;52.520;13.352;2023-04-01T07:24:11;99550.84;;;15.79;65.57
31044;BME280;17710;52.520;13.352;2023-04-01T07:26:42;99554.19;;;16.05;65.37
31044;BME280;17710;52.520;13.352;2023-04-01T07:29:12;99551.72;;;15.90;65.21
31044;BME280;17710;52.520;13.352;2023-04-01T07:31:56;99565.81;;;16.04;65.10
31044;BME280;17710;52.520;13.352;2023-04-01T07:34:28;99555.16;;;16.04;65.00
31044;BME280;17710;52.520;13.352;2023-04-01T07:37:01;99559.09;;;16.44;63.60
31044;BME280;17710;52.520;13.352;2023-04-01T07:39:39;99560.91;;;16.44;63.72
31044;BME280;17710;52.520;13.352;2023-04-01T07:42:16;99565.03;;;16.37;64.23
31044;BME280;17710;52.520;13.352;2023-04-01T07:44:54;99569.13;;;16.29;64.35
31044;BME280;17710;52.520;13.352;2023-04-01T07:47:41;99565.16;;;16.57;63.32
31044;BME280;17710;52.520;13.352;2023-04-01T07:50:18;99568.00;;;16.67;63.10
31044;BME280;17710;52.520;13.352;2023-04-01T07:52:58;99565.28;;;16.45;63.28
31044;BME280;17710;52.520;13.352;2023-04-01T07:55:33;99566.88;;;16.58;63.26
31044;BME280;17710;52.520;13.352;2023-04-01T07:58:09;99574.28;;;16.88;62.55
31044;BME280;17710;52.520;13.352;2023-04-01T08:00:46;99576.47;;;17.05;61.87
31044;BME280;17710;52.520;13.352;2023-04-01T08:03:29;99577.09;;;17.41;60.71
31044;BME280;17710;52.520;13.352;2023-04-01T08:06:00;99593.22;;;17.62;59.94
31044;BME280;17710;52.520;13.352;2023-04-01T08:08:40;99587.81;;;17.73;59.42
31044;BME280;17710;52.520;13.352;2023-04-01T08:11:17;99585.56;;;17.89;58.44
31044;BME280;17710;52.520;13.352;2023-04-01T08:13:55;99592.28;;;17.83;58.82
31044;BME280;17710;52.520;13.352;2023-04-01T08:16:34;99588.91;;;17.59;59.18
31044;BME280;17710;52.520;13.352;2023-04-01T08:19:13;99595.47;;;17.77;59.30
31044;BME280;17710;52.520;13.352;2023-04-01T08:21:43;99589.06;;;17.69;58.96
31044;BME280;17710;52.520;13.352;2023-04-01T08:24:17;99589.50;;;17.74;58.67
31044;BME280;17710;52.520;13.352;2023-04-01T08:26:51;99593.94;;;17.64;59.06
31044;BME280;17710;52.520;13.352;2023-04-01T08:29:23;99600.38;;;17.61;59.10
31044;BME280;17710;52.520;13.352;2023-04-01T08:31:56;99600.41;;;17.39;60.15
31044;BME280;17710;52.520;13.352;2023-04-01T08:34:28;99608.56;;;17.15;60.40
31044;BME280;17710;52.520;13.352;2023-04-01T08:37:00;99605.06;;;16.81;61.29
31044;BME280;17710;52.520;13.352;2023-04-01T08:39:30;99613.31;;;16.89;60.86
31044;BME280;17710;52.520;13.352;2023-04-01T08:42:24;99624.91;;;16.55;61.75
31044;BME280;17710;52.520;13.352;2023-04-01T08:45:14;99615.28;;;16.65;61.36
31044;BME280;17710;52.520;13.352;2023-04-01T08:47:54;99618.41;;;16.70;61.08
31044;BME280;17710;52.520;13.352;2023-04-01T08:56:36;99628.72;;;16.28;61.84
31044;BME280;17710;52.520;13.352;2023-04-01T08:59:31;99627.19;;;16.37;61.17
31044;BME280;17710;52.520;13.352;2023-04-01T09:02:22;99634.50;;;16.46;60.57
31044;BME280;17710;52.520;13.352;2023-04-01T09:05:12;99627.09;;;16.50;60.58
31044;BME280;17710;52.520;13.352;2023-04-01T09:07:56;99635.34;;;16.47;59.63
31044;BME280;17710;52.520;13.352;2023-04-01T09:10:41;99630.59;;;16.39;59.48
31044;BME280;17710;52.520;13.352;2023-04-01T09:13:29;99634.91;;;16.64;59.16
31044;BME280;17710;52.520;13.352;2023-04-01T09:16:12;99633.19;;;16.74;58.78
31044;BME280;17710;52.520;13.352;2023-04-01T09:19:05;99638.44;;;16.76;58.79
31044;BME280;17710;52.520;13.352;2023-04-01T09:22:09;99646.91;;;16.81;58.12
31044;BME280;17710;52.520;13.352;2023-04-01T09:25:15;99649.91;;;16.54;57.89
31044;BME280;17710;52.520;13.352;2023-04-01T09:27:49;99654.47;;;16.06;59.58
31044;BME280;17710;52.520;13.352;2023-04-01T09:33:54;99661.47;;;16.30;59.12
31044;BME280;17710;52.520;13.352;2023-04-01T09:36:38;99667.22;;;16.13;59.20
31044;BME280;17710;52.520;13.352;2023-04-01T09:39:19;99673.88;;;16.08;59.14
31044;BME280;17710;52.520;13.352;2023-04-01T09:42:06;99675.91;;;16.04;58.91
31044;BME280;17710;52.520;13.352;2023-04-01T09:44:35;99675.22;;;15.66;59.91
31044;BME280;17710;52.520;13.352;2023-04-01T09:47:15;99681.00;;;15.83;59.65
31044;BME280;17710;52.520;13.352;2023-04-01T09:49:55;99685.22;;;15.75;60.17
31044;BME280;17710;52.520;13.352;2023-04-01T09:52:31;99684.84;;;16.03;59.84
31044;BME280;17710;52.520;13.352;2023-04-01T09:55:20;99686.22;;;15.85;59.68
31044;BME280;17710;52.520;13.352;2023-04-01T09:58:33;99695.22;;;15.95;59.03
31044;BME280;17710;52.520;13.352;2023-04-01T10:01:34;99690.13;;;15.92;58.59
31044;BME280;17710;52.520;13.352;2023-04-01T10:04:27;99693.75;;;15.91;59.04
31044;BME280;17710;52.520;13.352;2023-04-01T10:07:21;99700.84;;;16.03;59.67
31044;BME280;17710;52.520;13.352;2023-04-01T10:10:17;99703.78;;;16.11;57.99
31044;BME280;17710;52.520;13.352;2023-04-01T10:16:04;99707.84;;;15.93;58.22
31044;BME280;17710;52.520;13.352;2023-04-01T10:22:10;99718.03;;;15.99;58.27
31044;BME280;17710;52.520;13.352;2023-04-01T10:25:00;99712.75;;;16.10;58.02
31044;BME280;17710;52.520;13.352;2023-04-01T10:27:58;99710.53;;;16.04;57.84
31044;BME280;17710;52.520;13.352;2023-04-01T10:30:56;99714.63;;;15.97;58.03
31044;BME280;17710;52.520;13.352;2023-04-01T10:36:46;99723.97;;;16.03;57.76
31044;BME280;17710;52.520;13.352;2023-04-01T10:39:34;99725.63;;;15.92;58.11
31044;BME280;17710;52.520;13.352;2023-04-01T10:45:24;99728.44;;;16.02;58.94
31044;BME280;17710;52.520;13.352;2023-04-01T10:48:13;99729.31;;;16.03;58.63
31044;BME280;17710;52.520;13.352;2023-04-01T10:51:17;99736.38;;;15.91;57.96
31044;BME280;17710;52.520;13.352;2023-04-01T10:54:25;99735.53;;;15.90;58.08
31044;BME280;17710;52.520;13.352;2023-04-01T10:57:07;99742.88;;;16.00;58.08
31044;BME280;17710;52.520;13.352;2023-04-01T10:59:57;99741.16;;;15.75;58.35
31044;BME280;17710;52.520;13.352;2023-04-01T11:05:56;99740.91;;;15.78;57.96
31044;BME280;17710;52.520;13.352;2023-04-01T11:09:00;99747.00;;;15.80;59.31
31044;BME280;17710;52.520;13.352;2023-04-01T11:11:55;99747.34;;;15.99;58.35
31044;BME280;17710;52.520;13.352;2023-04-01T11:14:54;99753.63;;;15.98;57.38
31044;BME280;17710;52.520;13.352;2023-04-01T11:17:47;99757.41;;;15.83;58.04
31044;BME280;17710;52.520;13.352;2023-04-01T11:20:37;99752.28;;;16.16;58.25
31044;BME280;17710;52.520;13.352;2023-04-01T11:23:25;99756.19;;;16.47;57.31
31044;BME280;17710;52.520;13.352;2023-04-01T11:26:04;99755.94;;;16.50;57.16
31044;BME280;17710;52.520;13.352;2023-04-01T11:28:55;99758.84;;;16.47;56.56
31044;BME280;17710;52.520;13.352;2023-04-01T11:31:44;99762.97;;;16.51;57.00
31044;BME280;17710;52.520;13.352;2023-04-01T11:34:32;99767.09;;;16.55;56.17
31044;BME280;17710;52.520;13.352;2023-04-01T11:37:16;99770.88;;;16.29;56.18
31044;BME280;17710;52.520;13.352;2023-04-01T11:39:57;99766.56;;;16.39;57.01
31044;BME280;17710;52.520;13.352;2023-04-01T11:42:34;99774.91;;;16.11;56.65
31044;BME280;17710;52.520;13.352;2023-04-01T11:45:15;99779.31;;;16.23;57.17
31044;BME280;17710;52.520;13.352;2023-04-01T11:47:56;99783.59;;;16.25;57.30
31044;BME280;17710;52.520;13.352;2023-04-01T11:50:34;99790.28;;;16.07;56.75
31044;BME280;17710;52.520;13.352;2023-04-01T11:56:07;99792.56;;;15.88;58.21
31044;BME280;17710;52.520;13.352;2023-04-01T12:01:34;99803.44;;;15.85;58.06
31044;BME280;17710;52.520;13.352;2023-04-01T12:07:18;99814.75;;;15.50;58.06
31044;BME280;17710;52.520;13.352;2023-04-01T12:09:55;99814.66;;;15.27;58.77
31044;BME280;17710;52.520;13.352;2023-04-01T12:12:29;99824.13;;;15.31;57.75
31044;BME280;17710;52.520;13.352;2023-04-01T12:15:16;99826.34;;;15.49;58.19
31044;BME280;17710;52.520;13.352;2023-04-01T12:17:48;99820.31;;;15.47;57.63
31044;BME280;17710;52.520;13.352;2023-04-01T12:20:29;99825.81;;;15.44;57.21
31044;BME280;17710;52.520;13.352;2023-04-01T12:23:09;99828.66;;;15.56;57.06
31044;BME280;17710;52.520;13.352;2023-04-01T12:25:58;99832.53;;;15.75;57.03
31044;BME280;17710;52.520;13.352;2023-04-01T12:28:41;99839.16;;;15.70;56.82
31044;BME280;17710;52.520;13.352;2023-04-01T12:31:19;99839.38;;;15.79;56.05
31044;BME280;17710;52.520;13.352;2023-04-01T12:34:04;99840.31;;;15.78;56.59
31044;BME280;17710;52.520;13.352;2023-04-01T12:36:44;99844.78;;;15.78;56.49
31044;BME280;17710;52.520;13.352;2023-04-01T12:39:33;99845.53;;;15.80;56.72
31044;BME280;17710;52.520;13.352;2023-04-01T12:42:10;99854.28;;;15.57;56.72
31044;BME280;17710;52.520;13.352;2023-04-01T12:44:48;99850.75;;;15.81;56.63
31044;BME280;17710;52.520;13.352;2023-04-01T12:47:42;99850.00;;;15.79;56.00
31044;BME280;17710;52.520;13.352;2023-04-01T12:50:31;99854.50;;;15.53;56.20
31044;BME280;17710;52.520;13.352;2023-04-01T12:53:13;99861.63;;;15.66;56.54
31044;BME280;17710;52.520;13.352;2023-04-01T12:55:45;99865.34;;;15.50;55.89
31044;BME280;17710;52.520;13.352;2023-04-01T12:58:35;99874.03;;;15.02;57.54
31044;BME280;17710;52.520;13.352;2023-04-01T13:01:48;99866.09;;;14.75;58.81
31044;BME280;17710;52.520;13.352;2023-04-01T13:04:50;99878.91;;;14.95;58.50
31044;BME280;17710;52.520;13.352;2023-04-01T13:07:26;99889.00;;;14.90;57.83
31044;BME280;17710;52.520;13.352;2023-04-01T13:10:02;99878.66;;;14.86;57.38
31044;BME280;17710;52.520;13.352;2023-04-01T13:13:00;99888.16;;;14.90;57.87
31044;BME280;17710;52.520;13.352;2023-04-01T13:15:41;99881.94;;;14.77;58.67
31044;BME280;17710;52.520;13.352;2023-04-01T13:18:20;99888.63;;;14.69;57.77
31044;BME280;17710;52.520;13.352;2023-04-01T13:20:54;99892.72;;;14.88;57.59
31044;BME280;17710;52.520;13.352;2023-04-01T13:23:32;99901.94;;;15.09;56.91
31044;BME280;17710;52.520;13.352;2023-04-01T13:26:06;99901.34;;;14.91;56.48
31044;BME280;17710;52.520;13.352;2023-04-01T13:28:39;99914.19;;;14.85;57.39
31044;BME280;17710;52.520;13.352;2023-04-01T13:31:09;99912.25;;;14.74;57.16
31044;BME280;17710;52.520;13.352;2023-04-01T13:33:47;99914.31;;;14.83;56.96
31044;BME280;17710;52.520;13.352;2023-04-01T13:36:21;99917.41;;;14.90;57.05
31044;BME280;17710;52.520;13.352;2023-04-01T13:39:05;99918.06;;;14.93;56.82
31044;BME280;17710;52.520;13.352;2023-04-01T13:41:46;99915.75;;;15.01;56.94
31044;BME280;17710;52.520;13.352;2023-04-01T13:44:21;99923.13;;;14.84;56.78
31044;BME280;17710;52.520;13.352;2023-04-01T13:47:06;99927.34;;;14.73;56.38
31044;BME280;17710;52.520;13.352;2023-04-01T13:49:44;99927.84;;;14.66;57.29
31044;BME280;17710;52.520;13.352;2023-04-01T13:52:32;99922.56;;;14.52;57.21
31044;BME280;17710;52.520;13.352;2023-04-01T13:58:23;99929.75;;;14.64;56.42
31044;BME280;17710;52.520;13.352;2023-04-01T14:01:05;99934.97;;;14.65;56.53
31044;BME280;17710;52.520;13.352;2023-04-01T14:03:54;99940.72;;;14.72;56.67
31044;BME280;17710;52.520;13.352;2023-04-01T14:06:35;99943.09;;;14.35;57.35
31044;BME280;17710;52.520;13.352;2023-04-01T14:09:29;99941.34;;;14.63;57.44
31044;BME280;17710;52.520;13.352;2023-04-01T14:12:05;99942.81;;;14.81;57.03